sensor_id;sensor_type;location;lat;lon;timestamp;P1;durP1;ratioP1;P2;durP2;ratioP2
2386;SDS011;49473;50.772;8.768;2023-03-01T00:00:49;14.73;;;11.20;;
2386;SDS011;49473;50.772;8.768;2023-03-01T00:03:16;24.80;;;14.00;;
2386;SDS011;49473;50.772;8.768;2023-03-01T00:05:43;10.80;;;9.63;;
2386;SDS011;49473;50.772;8.768;2023-03-01T00:08:10;10.97;;;9.37;;
2386;SDS011;49473;50.772;8.768;2023-03-01T00:10:37;12.10;;;9.80;;
2386;SDS011;49473;50.772;8.768;2023-03-01T00:13:04;15.10;;;11.73;;
2386;SDS011;49473;50.772;8.768;2023-03-01T00:15:31;10.90;;;9.80;;
2386;SDS011;49473;50.772;8.768;2023-03-01T00:18:00;13.00;;;10.33;;
2386;SDS011;49473;50.772;8.768;2023-03-01T00:20:27;15.37;;;10.67;;
2386;SDS011;49473;50.772;8.768;2023-03-01T00:22:53;12.23;;;9.70;;
2386;SDS011;49473;50.772;8.768;2023-03-01T00:25:20;12.33;;;9.63;;
2386;SDS011;49473;50.772;8.768;2023-03-01T00:27:47;9.33;;;8.23;;
2386;SDS011;49473;50.772;8.768;2023-03-01T00:30:14;12.60;;;8.57;;
2386;SDS011;49473;50.772;8.768;2023-03-01T00:32:41;11.93;;;10.03;;
2386;SDS011;49473;50.772;8.768;2023-03-01T00:35:09;12.10;;;10.53;;
2386;SDS011;49473;50.772;8.768;2023-03-01T00:37:36;10.60;;;9.13;;
2386;SDS011;49473;50.772;8.768;2023-03-01T00:40:03;12.50;;;10.03;;
2386;SDS011;49473;50.772;8.768;2023-03-01T00:42:32;11.70;;;10.50;;
2386;SDS011;49473;50.772;8.768;2023-03-01T00:44:58;13.13;;;10.20;;
2386;SDS011;49473;50.772;8.768;2023-03-01T00:47:25;25.90;;;13.70;;
2386;SDS011;49473;50.772;8.768;2023-03-01T00:49:54;13.00;;;10.63;;
2386;SDS011;49473;50.772;8.768;2023-03-01T00:52:22;17.87;;;12.80;;
2386;SDS011;49473;50.772;8.768;2023-03-01T00:54:51;15.37;;;11.30;;
2386;SDS011;49473;50.772;8.768;2023-03-01T00:57:18;13.13;;;11.73;;
2386;SDS011;49473;50.772;8.768;2023-03-01T00:59:45;12.70;;;9.47;;
2386;SDS011;49473;50.772;8.768;2023-03-01T01:02:12;10.83;;;9.73;;
2386;SDS011;49473;50.772;8.768;2023-03-01T01:04:38;13.80;;;10.77;;
2386;SDS011;49473;50.772;8.768;2023-03-01T01:07:05;16.20;;;11.20;;
2386;SDS011;49473;50.772;8.768;2023-03-01T01:09:33;11.10;;;9.93;;
2386;SDS011;49473;50.772;8.768;2023-03-01T01:12:00;18.70;;;12.83;;
2386;SDS011;49473;50.772;8.768;2023-03-01T01:14:27;12.80;;;10.67;;
2386;SDS011;49473;50.772;8.768;2023-03-01T01:16:54;13.60;;;10.60;;
2386;SDS011;49473;50.772;8.768;2023-03-01T01:19:20;11.70;;;10.60;;
2386;SDS011;49473;50.772;8.768;2023-03-01T01:21:47;19.10;;;14.27;;
2386;SDS011;49473;50.772;8.768;2023-03-01T01:24:14;18.13;;;12.80;;
2386;SDS011;49473;50.772;8.768;2023-03-01T01:26:43;16.50;;;11.90;;
2386;SDS011;49473;50.772;8.768;2023-03-01T01:29:10;12.77;;;9.60;;
2386;SDS011;49473;50.772;8.768;2023-03-01T01:31:38;19.50;;;12.90;;
2386;SDS011;49473;50.772;8.768;2023-03-01T01:34:07;13.70;;;10.53;;
2386;SDS011;49473;50.772;8.768;2023-03-01T01:36:38;13.63;;;10.90;;
2386;SDS011;49473;50.772;8.768;2023-03-01T01:39:05;13.73;;;10.97;;
2386;SDS011;49473;50.772;8.768;2023-03-01T01:41:32;11.40;;;10.00;;
2386;SDS011;49473;50.772;8.768;2023-03-01T01:44:14;13.47;;;11.30;;
2386;SDS011;49473;50.772;8.768;2023-03-01T01:46:43;14.37;;;10.73;;
2386;SDS011;49473;50.772;8.768;2023-03-01T01:49:16;25.67;;;13.73;;
2386;SDS011;49473;50.772;8.768;2023-03-01T01:51:48;14.20;;;11.03;;
2386;SDS011;49473;50.772;8.768;2023-03-01T01:54:18;11.90;;;10.60;;
2386;SDS011;49473;50.772;8.768;2023-03-01T01:56:50;21.23;;;14.00;;
2386;SDS011;49473;50.772;8.768;2023-03-01T01:59:23;15.53;;;11.53;;
2386;SDS011;49473;50.772;8.768;2023-03-01T02:01:51;14.27;;;10.17;;
2386;SDS011;49473;50.772;8.768;2023-03-01T02:04:18;15.47;;;12.90;;
2386;SDS011;49473;50.772;8.768;2023-03-01T02:06:48;14.17;;;11.17;;
2386;SDS011;49473;50.772;8.768;2023-03-01T02:09:19;13.70;;;10.40;;
2386;SDS011;49473;50.772;8.768;2023-03-01T02:11:48;13.93;;;10.30;;
2386;SDS011;49473;50.772;8.768;2023-03-01T02:14:16;13.67;;;10.13;;
2386;SDS011;49473;50.772;8.768;2023-03-01T02:16:44;12.87;;;9.70;;
2386;SDS011;49473;50.772;8.768;2023-03-01T02:19:13;29.00;;;19.07;;
2386;SDS011;49473;50.772;8.768;2023-03-01T02:22:01;13.23;;;10.37;;
2386;SDS011;49473;50.772;8.768;2023-03-01T02:24:34;13.90;;;10.43;;
2386;SDS011;49473;50.772;8.768;2023-03-01T02:27:08;18.53;;;13.23;;
2386;SDS011;49473;50.772;8.768;2023-03-01T02:29:37;21.50;;;16.00;;
2386;SDS011;49473;50.772;8.768;2023-03-01T02:32:04;20.87;;;15.90;;
2386;SDS011;49473;50.772;8.768;2023-03-01T02:34:31;15.67;;;10.77;;
2386;SDS011;49473;50.772;8.768;2023-03-01T02:37:00;16.90;;;12.10;;
2386;SDS011;49473;50.772;8.768;2023-03-01T02:39:30;17.43;;;10.50;;
2386;SDS011;49473;50.772;8.768;2023-03-01T02:42:00;26.10;;;14.90;;
2386;SDS011;49473;50.772;8.768;2023-03-01T02:44:28;19.00;;;12.40;;
2386;SDS011;49473;50.772;8.768;2023-03-01T02:46:56;19.87;;;14.23;;
2386;SDS011;49473;50.772;8.768;2023-03-01T02:49:29;13.03;;;11.70;;
2386;SDS011;49473;50.772;8.768;2023-03-01T02:52:22;16.10;;;11.13;;
2386;SDS011;49473;50.772;8.768;2023-03-01T02:54:58;11.23;;;10.00;;
2386;SDS011;49473;50.772;8.768;2023-03-01T02:57:27;12.23;;;10.80;;
2386;SDS011;49473;50.772;8.768;2023-03-01T02:59:56;13.30;;;10.90;;
2386;SDS011;49473;50.772;8.768;2023-03-01T03:02:29;12.73;;;10.73;;
2386;SDS011;49473;50.772;8.768;2023-03-01T03:05:03;12.97;;;10.20;;
2386;SDS011;49473;50.772;8.768;2023-03-01T03:07:33;13.67;;;10.63;;
2386;SDS011;49473;50.772;8.768;2023-03-01T03:10:00;15.67;;;10.97;;
2386;SDS011;49473;50.772;8.768;2023-03-01T03:12:27;17.10;;;11.53;;
2386;SDS011;49473;50.772;8.768;2023-03-01T03:14:54;11.03;;;9.83;;
2386;SDS011;49473;50.772;8.768;2023-03-01T03:17:20;14.60;;;11.20;;
2386;SDS011;49473;50.772;8.768;2023-03-01T03:19:48;13.40;;;9.97;;
2386;SDS011;49473;50.772;8.768;2023-03-01T03:22:15;13.90;;;10.60;;
2386;SDS011;49473;50.772;8.768;2023-03-01T03:24:42;12.40;;;10.10;;
2386;SDS011;49473;50.772;8.768;2023-03-01T03:27:09;11.10;;;9.03;;
2386;SDS011;49473;50.772;8.768;2023-03-01T03:29:35;12.43;;;10.33;;
2386;SDS011;49473;50.772;8.768;2023-03-01T03:32:02;12.00;;;9.50;;
2386;SDS011;49473;50.772;8.768;2023-03-01T03:34:29;12.90;;;9.83;;
2386;SDS011;49473;50.772;8.768;2023-03-01T03:36:57;10.50;;;9.40;;
2386;SDS011;49473;50.772;8.768;2023-03-01T03:39:25;11.87;;;9.70;;
2386;SDS011;49473;50.772;8.768;2023-03-01T03:41:52;11.20;;;9.70;;
2386;SDS011;49473;50.772;8.768;2023-03-01T03:44:19;16.03;;;11.33;;
2386;SDS011;49473;50.772;8.768;2023-03-01T03:46:46;11.43;;;9.20;;
2386;SDS011;49473;50.772;8.768;2023-03-01T03:49:13;11.23;;;9.60;;
2386;SDS011;49473;50.772;8.768;2023-03-01T03:51:39;13.70;;;9.87;;
2386;SDS011;49473;50.772;8.768;2023-03-01T03:54:07;13.10;;;10.53;;
2386;SDS011;49473;50.772;8.768;2023-03-01T03:56:35;10.83;;;9.67;;
2386;SDS011;49473;50.772;8.768;2023-03-01T03:59:02;12.17;;;9.97;;
2386;SDS011;49473;50.772;8.768;2023-03-01T04:01:30;10.90;;;9.50;;
2386;SDS011;49473;50.772;8.768;2023-03-01T04:03:57;12.17;;;9.53;;
2386;SDS011;49473;50.772;8.768;2023-03-01T04:06:29;14.50;;;10.00;;
2386;SDS011;49473;50.772;8.768;2023-03-01T04:08:56;13.03;;;10.37;;
2386;SDS011;49473;50.772;8.768;2023-03-01T04:11:24;13.50;;;10.90;;
2386;SDS011;49473;50.772;8.768;2023-03-01T04:13:54;11.87;;;9.80;;
2386;SDS011;49473;50.772;8.768;2023-03-01T04:16:22;13.13;;;9.80;;
2386;SDS011;49473;50.772;8.768;2023-03-01T04:18:49;10.30;;;8.33;;
2386;SDS011;49473;50.772;8.768;2023-03-01T04:21:18;15.33;;;10.20;;
2386;SDS011;49473;50.772;8.768;2023-03-01T04:23:45;15.30;;;10.47;;
2386;SDS011;49473;50.772;8.768;2023-03-01T04:26:12;10.20;;;9.10;;
2386;SDS011;49473;50.772;8.768;2023-03-01T04:28:40;12.50;;;10.00;;
2386;SDS011;49473;50.772;8.768;2023-03-01T04:31:11;12.27;;;10.07;;
2386;SDS011;49473;50.772;8.768;2023-03-01T04:33:43;12.77;;;9.60;;
2386;SDS011;49473;50.772;8.768;2023-03-01T04:36:11;13.50;;;10.00;;
2386;SDS011;49473;50.772;8.768;2023-03-01T04:38:39;13.80;;;10.93;;
2386;SDS011;49473;50.772;8.768;2023-03-01T04:41:06;13.53;;;10.63;;
2386;SDS011;49473;50.772;8.768;2023-03-01T04:43:34;13.47;;;10.23;;
2386;SDS011;49473;50.772;8.768;2023-03-01T04:46:03;13.57;;;10.17;;
2386;SDS011;49473;50.772;8.768;2023-03-01T04:48:34;15.17;;;9.93;;
2386;SDS011;49473;50.772;8.768;2023-03-01T04:51:01;12.37;;;9.80;;
2386;SDS011;49473;50.772;8.768;2023-03-01T04:53:29;12.70;;;9.60;;
2386;SDS011;49473;50.772;8.768;2023-03-01T04:55:56;10.40;;;9.27;;
2386;SDS011;49473;50.772;8.768;2023-03-01T04:58:23;14.83;;;9.80;;
2386;SDS011;49473;50.772;8.768;2023-03-01T05:00:50;13.37;;;10.50;;
2386;SDS011;49473;50.772;8.768;2023-03-01T05:03:18;15.03;;;10.57;;
2386;SDS011;49473;50.772;8.768;2023-03-01T05:05:47;14.33;;;10.17;;
2386;SDS011;49473;50.772;8.768;2023-03-01T05:08:16;13.10;;;10.60;;
2386;SDS011;49473;50.772;8.768;2023-03-01T05:10:43;17.20;;;11.83;;
2386;SDS011;49473;50.772;8.768;2023-03-01T05:13:12;11.70;;;9.80;;
2386;SDS011;49473;50.772;8.768;2023-03-01T05:15:45;13.50;;;9.97;;
2386;SDS011;49473;50.772;8.768;2023-03-01T05:18:15;14.03;;;10.97;;
2386;SDS011;49473;50.772;8.768;2023-03-01T05:20:43;14.03;;;10.53;;
2386;SDS011;49473;50.772;8.768;2023-03-01T05:23:10;12.07;;;10.70;;
2386;SDS011;49473;50.772;8.768;2023-03-01T05:25:37;13.90;;;11.20;;
2386;SDS011;49473;50.772;8.768;2023-03-01T05:28:05;16.00;;;10.60;;
2386;SDS011;49473;50.772;8.768;2023-03-01T05:30:33;11.70;;;10.10;;
2386;SDS011;49473;50.772;8.768;2023-03-01T05:33:00;16.70;;;10.03;;
2386;SDS011;49473;50.772;8.768;2023-03-01T05:35:27;15.63;;;10.63;;
2386;SDS011;49473;50.772;8.768;2023-03-01T05:37:58;16.03;;;10.27;;
2386;SDS011;49473;50.772;8.768;2023-03-01T05:40:25;13.87;;;10.00;;
2386;SDS011;49473;50.772;8.768;2023-03-01T05:42:53;15.40;;;11.50;;
2386;SDS011;49473;50.772;8.768;2023-03-01T05:45:22;15.87;;;11.93;;
2386;SDS011;49473;50.772;8.768;2023-03-01T05:47:50;12.97;;;10.53;;
2386;SDS011;49473;50.772;8.768;2023-03-01T05:50:18;11.30;;;9.13;;
2386;SDS011;49473;50.772;8.768;2023-03-01T05:52:47;13.70;;;10.20;;
2386;SDS011;49473;50.772;8.768;2023-03-01T05:55:16;13.17;;;10.40;;
2386;SDS011;49473;50.772;8.768;2023-03-01T05:57:43;15.00;;;11.30;;
2386;SDS011;49473;50.772;8.768;2023-03-01T06:00:11;12.83;;;10.53;;
2386;SDS011;49473;50.772;8.768;2023-03-01T06:02:40;13.57;;;9.63;;
2386;SDS011;49473;50.772;8.768;2023-03-01T06:05:07;15.07;;;10.37;;
2386;SDS011;49473;50.772;8.768;2023-03-01T06:07:35;15.17;;;11.10;;
2386;SDS011;49473;50.772;8.768;2023-03-01T06:10:02;15.43;;;11.33;;
2386;SDS011;49473;50.772;8.768;2023-03-01T06:12:31;15.17;;;12.67;;
2386;SDS011;49473;50.772;8.768;2023-03-01T06:14:58;15.80;;;11.70;;
2386;SDS011;49473;50.772;8.768;2023-03-01T06:17:24;16.20;;;12.27;;
2386;SDS011;49473;50.772;8.768;2023-03-01T06:19:51;14.50;;;12.00;;
2386;SDS011;49473;50.772;8.768;2023-03-01T06:22:18;19.93;;;11.77;;
2386;SDS011;49473;50.772;8.768;2023-03-01T06:24:45;16.40;;;12.63;;
2386;SDS011;49473;50.772;8.768;2023-03-01T06:27:11;15.73;;;12.50;;
2386;SDS011;49473;50.772;8.768;2023-03-01T06:29:40;17.53;;;13.13;;
2386;SDS011;49473;50.772;8.768;2023-03-01T06:32:07;16.10;;;12.40;;
2386;SDS011;49473;50.772;8.768;2023-03-01T06:34:34;13.97;;;11.40;;
2386;SDS011;49473;50.772;8.768;2023-03-01T06:37:00;16.93;;;12.77;;
2386;SDS011;49473;50.772;8.768;2023-03-01T06:39:30;18.50;;;12.67;;
2386;SDS011;49473;50.772;8.768;2023-03-01T06:41:56;15.00;;;11.87;;
2386;SDS011;49473;50.772;8.768;2023-03-01T06:44:23;15.60;;;11.70;;
2386;SDS011;49473;50.772;8.768;2023-03-01T06:46:52;15.07;;;11.60;;
2386;SDS011;49473;50.772;8.768;2023-03-01T06:49:19;13.47;;;12.07;;
2386;SDS011;49473;50.772;8.768;2023-03-01T06:51:46;13.97;;;11.87;;
2386;SDS011;49473;50.772;8.768;2023-03-01T06:54:12;15.73;;;12.40;;
2386;SDS011;49473;50.772;8.768;2023-03-01T06:56:39;16.00;;;11.50;;
2386;SDS011;49473;50.772;8.768;2023-03-01T06:59:06;13.13;;;11.73;;
2386;SDS011;49473;50.772;8.768;2023-03-01T07:01:33;16.13;;;11.77;;
2386;SDS011;49473;50.772;8.768;2023-03-01T07:04:01;15.57;;;12.87;;
2386;SDS011;49473;50.772;8.768;2023-03-01T07:06:27;17.00;;;13.33;;
2386;SDS011;49473;50.772;8.768;2023-03-01T07:08:54;17.43;;;13.30;;
2386;SDS011;49473;50.772;8.768;2023-03-01T07:11:21;16.73;;;13.67;;
2386;SDS011;49473;50.772;8.768;2023-03-01T07:13:48;15.90;;;12.93;;
2386;SDS011;49473;50.772;8.768;2023-03-01T07:16:15;16.10;;;12.80;;
2386;SDS011;49473;50.772;8.768;2023-03-01T07:18:41;16.37;;;13.17;;
2386;SDS011;49473;50.772;8.768;2023-03-01T07:21:11;16.07;;;12.57;;
2386;SDS011;49473;50.772;8.768;2023-03-01T07:23:39;14.57;;;12.60;;
2386;SDS011;49473;50.772;8.768;2023-03-01T07:26:06;14.97;;;11.80;;
2386;SDS011;49473;50.772;8.768;2023-03-01T07:28:33;12.23;;;11.00;;
2386;SDS011;49473;50.772;8.768;2023-03-01T07:31:01;12.63;;;11.33;;
2386;SDS011;49473;50.772;8.768;2023-03-01T07:33:28;11.60;;;10.40;;
2386;SDS011;49473;50.772;8.768;2023-03-01T07:35:55;13.63;;;12.23;;
2386;SDS011;49473;50.772;8.768;2023-03-01T07:38:25;14.73;;;12.57;;
2386;SDS011;49473;50.772;8.768;2023-03-01T07:40:52;14.03;;;12.30;;
2386;SDS011;49473;50.772;8.768;2023-03-01T07:43:19;14.30;;;12.63;;
2386;SDS011;49473;50.772;8.768;2023-03-01T07:45:46;14.10;;;12.30;;
2386;SDS011;49473;50.772;8.768;2023-03-01T07:48:13;11.97;;;10.77;;
2386;SDS011;49473;50.772;8.768;2023-03-01T07:50:40;12.83;;;11.63;;
2386;SDS011;49473;50.772;8.768;2023-03-01T07:53:07;13.33;;;11.87;;
2386;SDS011;49473;50.772;8.768;2023-03-01T07:55:36;12.10;;;10.60;;
2386;SDS011;49473;50.772;8.768;2023-03-01T07:58:02;11.80;;;10.50;;
2386;SDS011;49473;50.772;8.768;2023-03-01T08:00:29;11.77;;;10.53;;
2386;SDS011;49473;50.772;8.768;2023-03-01T08:02:58;13.33;;;10.80;;
2386;SDS011;49473;50.772;8.768;2023-03-01T08:05:25;12.70;;;11.40;;
2386;SDS011;49473;50.772;8.768;2023-03-01T08:07:51;12.93;;;11.37;;
2386;SDS011;49473;50.772;8.768;2023-03-01T08:10:19;14.03;;;11.13;;
2386;SDS011;49473;50.772;8.768;2023-03-01T08:12:47;11.87;;;9.90;;
2386;SDS011;49473;50.772;8.768;2023-03-01T08:15:16;13.30;;;10.57;;
2386;SDS011;49473;50.772;8.768;2023-03-01T08:17:43;11.83;;;10.63;;
2386;SDS011;49473;50.772;8.768;2023-03-01T08:20:10;12.37;;;11.17;;
2386;SDS011;49473;50.772;8.768;2023-03-01T08:22:37;11.80;;;10.70;;
2386;SDS011;49473;50.772;8.768;2023-03-01T08:25:04;12.57;;;11.30;;
2386;SDS011;49473;50.772;8.768;2023-03-01T08:27:31;11.67;;;10.50;;
2386;SDS011;49473;50.772;8.768;2023-03-01T08:29:59;12.30;;;11.00;;
2386;SDS011;49473;50.772;8.768;2023-03-01T08:32:26;10.77;;;9.67;;
2386;SDS011;49473;50.772;8.768;2023-03-01T08:34:52;11.70;;;9.10;;
2386;SDS011;49473;50.772;8.768;2023-03-01T08:37:19;10.43;;;9.27;;
2386;SDS011;49473;50.772;8.768;2023-03-01T08:39:46;9.77;;;8.77;;
2386;SDS011;49473;50.772;8.768;2023-03-01T08:42:12;9.97;;;9.00;;
2386;SDS011;49473;50.772;8.768;2023-03-01T08:44:39;9.47;;;8.47;;
2386;SDS011;49473;50.772;8.768;2023-03-01T08:47:07;9.10;;;8.20;;
2386;SDS011;49473;50.772;8.768;2023-03-01T08:49:34;9.57;;;8.60;;
2386;SDS011;49473;50.772;8.768;2023-03-01T08:52:01;10.73;;;9.60;;
2386;SDS011;49473;50.772;8.768;2023-03-01T08:54:28;11.20;;;10.10;;
2386;SDS011;49473;50.772;8.768;2023-03-01T08:56:55;11.03;;;9.13;;
2386;SDS011;49473;50.772;8.768;2023-03-01T08:59:24;11.07;;;9.73;;
2386;SDS011;49473;50.772;8.768;2023-03-01T09:01:51;12.93;;;9.10;;
2386;SDS011;49473;50.772;8.768;2023-03-01T09:04:21;9.57;;;8.57;;
2386;SDS011;49473;50.772;8.768;2023-03-01T09:06:48;9.53;;;8.60;;
2386;SDS011;49473;50.772;8.768;2023-03-01T09:09:15;12.10;;;9.83;;
2386;SDS011;49473;50.772;8.768;2023-03-01T09:11:43;15.80;;;12.30;;
2386;SDS011;49473;50.772;8.768;2023-03-01T09:14:11;13.60;;;12.27;;
2386;SDS011;49473;50.772;8.768;2023-03-01T09:16:38;11.33;;;8.77;;
2386;SDS011;49473;50.772;8.768;2023-03-01T09:19:05;10.13;;;8.93;;
2386;SDS011;49473;50.772;8.768;2023-03-01T09:21:33;9.60;;;8.60;;
2386;SDS011;49473;50.772;8.768;2023-03-01T09:23:59;13.60;;;12.10;;
2386;SDS011;49473;50.772;8.768;2023-03-01T09:26:26;13.63;;;10.63;;
2386;SDS011;49473;50.772;8.768;2023-03-01T09:28:54;12.27;;;10.97;;
2386;SDS011;49473;50.772;8.768;2023-03-01T09:31:22;16.37;;;13.43;;
2386;SDS011;49473;50.772;8.768;2023-03-01T09:33:50;9.87;;;8.90;;
2386;SDS011;49473;50.772;8.768;2023-03-01T09:36:19;9.63;;;8.63;;
2386;SDS011;49473;50.772;8.768;2023-03-01T09:38:49;9.63;;;8.07;;
2386;SDS011;49473;50.772;8.768;2023-03-01T09:41:32;10.73;;;9.63;;
2386;SDS011;49473;50.772;8.768;2023-03-01T09:44:10;10.60;;;8.40;;
2386;SDS011;49473;50.772;8.768;2023-03-01T09:46:45;11.97;;;8.97;;
2386;SDS011;49473;50.772;8.768;2023-03-01T09:49:14;9.27;;;8.37;;
2386;SDS011;49473;50.772;8.768;2023-03-01T09:51:46;8.73;;;7.93;;
2386;SDS011;49473;50.772;8.768;2023-03-01T09:54:21;10.23;;;9.33;;
2386;SDS011;49473;50.772;8.768;2023-03-01T09:56:53;8.80;;;8.00;;
2386;SDS011;49473;50.772;8.768;2023-03-01T09:59:31;9.37;;;8.47;;
2386;SDS011;49473;50.772;8.768;2023-03-01T10:02:11;9.30;;;8.40;;
2386;SDS011;49473;50.772;8.768;2023-03-01T10:04:48;11.17;;;8.93;;
2386;SDS011;49473;50.772;8.768;2023-03-01T10:07:21;10.27;;;9.27;;
2386;SDS011;49473;50.772;8.768;2023-03-01T10:09:55;16.73;;;14.97;;
2386;SDS011;49473;50.772;8.768;2023-03-01T10:12:23;10.47;;;8.77;;
2386;SDS011;49473;50.772;8.768;2023-03-01T10:14:57;10.70;;;9.27;;
2386;SDS011;49473;50.772;8.768;2023-03-01T10:17:30;10.00;;;8.97;;
2386;SDS011;49473;50.772;8.768;2023-03-01T10:20:16;11.50;;;10.50;;
2386;SDS011;49473;50.772;8.768;2023-03-01T10:22:45;9.20;;;8.30;;
2386;SDS011;49473;50.772;8.768;2023-03-01T10:25:17;9.60;;;8.70;;
2386;SDS011;49473;50.772;8.768;2023-03-01T10:27:53;9.50;;;8.60;;
2386;SDS011;49473;50.772;8.768;2023-03-01T10:30:22;10.23;;;8.47;;
2386;SDS011;49473;50.772;8.768;2023-03-01T10:32:56;9.17;;;8.27;;
2386;SDS011;49473;50.772;8.768;2023-03-01T10:35:24;10.20;;;9.20;;
2386;SDS011;49473;50.772;8.768;2023-03-01T10:37:57;10.03;;;8.13;;
2386;SDS011;49473;50.772;8.768;2023-03-01T10:40:25;8.13;;;7.53;;
2386;SDS011;49473;50.772;8.768;2023-03-01T10:42:52;9.73;;;8.73;;
2386;SDS011;49473;50.772;8.768;2023-03-01T10:45:29;9.40;;;8.53;;
2386;SDS011;49473;50.772;8.768;2023-03-01T10:48:11;10.57;;;9.57;;
2386;SDS011;49473;50.772;8.768;2023-03-01T10:50:39;10.70;;;8.47;;
2386;SDS011;49473;50.772;8.768;2023-03-01T10:53:18;9.33;;;8.53;;
2386;SDS011;49473;50.772;8.768;2023-03-01T10:55:50;8.70;;;7.90;;
2386;SDS011;49473;50.772;8.768;2023-03-01T10:58:24;9.03;;;8.13;;
2386;SDS011;49473;50.772;8.768;2023-03-01T11:00:51;8.50;;;7.70;;
2386;SDS011;49473;50.772;8.768;2023-03-01T11:03:21;8.57;;;7.80;;
2386;SDS011;49473;50.772;8.768;2023-03-01T11:06:04;9.17;;;8.37;;
2386;SDS011;49473;50.772;8.768;2023-03-01T11:08:36;8.80;;;8.10;;
2386;SDS011;49473;50.772;8.768;2023-03-01T11:11:12;9.63;;;8.73;;
2386;SDS011;49473;50.772;8.768;2023-03-01T11:13:50;8.77;;;7.97;;
2386;SDS011;49473;50.772;8.768;2023-03-01T11:16:22;8.87;;;8.07;;
2386;SDS011;49473;50.772;8.768;2023-03-01T11:21:52;9.20;;;8.40;;
2386;SDS011;49473;50.772;8.768;2023-03-01T11:24:24;9.10;;;8.20;;
2386;SDS011;49473;50.772;8.768;2023-03-01T11:26:57;9.07;;;8.27;;
2386;SDS011;49473;50.772;8.768;2023-03-01T11:29:30;9.03;;;8.23;;
2386;SDS011;49473;50.772;8.768;2023-03-01T11:32:07;8.67;;;7.97;;
2386;SDS011;49473;50.772;8.768;2023-03-01T11:34:39;8.60;;;7.80;;
2386;SDS011;49473;50.772;8.768;2023-03-01T11:37:12;8.90;;;8.10;;
2386;SDS011;49473;50.772;8.768;2023-03-01T11:39:51;9.10;;;8.40;;
2386;SDS011;49473;50.772;8.768;2023-03-01T11:42:28;8.60;;;7.90;;
2386;SDS011;49473;50.772;8.768;2023-03-01T11:45:08;8.93;;;8.23;;
2386;SDS011;49473;50.772;8.768;2023-03-01T11:47:46;9.27;;;8.47;;
2386;SDS011;49473;50.772;8.768;2023-03-01T11:50:26;9.00;;;8.30;;
2386;SDS011;49473;50.772;8.768;2023-03-01T11:52:59;8.23;;;7.53;;
2386;SDS011;49473;50.772;8.768;2023-03-01T11:55:38;9.33;;;8.53;;
2386;SDS011;49473;50.772;8.768;2023-03-01T11:58:27;8.37;;;7.57;;
2386;SDS011;49473;50.772;8.768;2023-03-01T12:01:09;9.27;;;8.43;;
2386;SDS011;49473;50.772;8.768;2023-03-01T12:06:40;9.87;;;8.20;;
2386;SDS011;49473;50.772;8.768;2023-03-01T12:09:18;8.33;;;7.63;;
2386;SDS011;49473;50.772;8.768;2023-03-01T12:12:05;8.20;;;7.50;;
2386;SDS011;49473;50.772;8.768;2023-03-01T12:14:57;8.50;;;7.80;;
2386;SDS011;49473;50.772;8.768;2023-03-01T12:17:46;8.57;;;7.87;;
2386;SDS011;49473;50.772;8.768;2023-03-01T12:20:26;9.53;;;8.73;;
2386;SDS011;49473;50.772;8.768;2023-03-01T12:26:06;9.03;;;8.23;;
2386;SDS011;49473;50.772;8.768;2023-03-01T12:28:42;7.60;;;7.00;;
2386;SDS011;49473;50.772;8.768;2023-03-01T12:31:44;8.70;;;7.90;;
2386;SDS011;49473;50.772;8.768;2023-03-01T12:34:36;8.40;;;7.60;;
2386;SDS011;49473;50.772;8.768;2023-03-01T12:37:17;8.73;;;7.90;;
2386;SDS011;49473;50.772;8.768;2023-03-01T12:39:54;8.80;;;8.10;;
2386;SDS011;49473;50.772;8.768;2023-03-01T12:42:30;9.10;;;8.20;;
2386;SDS011;49473;50.772;8.768;2023-03-01T12:45:14;8.43;;;7.70;;
2386;SDS011;49473;50.772;8.768;2023-03-01T12:48:02;9.00;;;7.97;;
2386;SDS011;49473;50.772;8.768;2023-03-01T12:50:40;8.83;;;8.00;;
2386;SDS011;49473;50.772;8.768;2023-03-01T12:53:15;8.43;;;7.57;;
2386;SDS011;49473;50.772;8.768;2023-03-01T12:55:48;9.47;;;7.90;;
2386;SDS011;49473;50.772;8.768;2023-03-01T12:58:19;7.83;;;7.23;;
2386;SDS011;49473;50.772;8.768;2023-03-01T13:00:53;7.73;;;7.13;;
2386;SDS011;49473;50.772;8.768;2023-03-01T13:03:33;8.40;;;7.70;;
2386;SDS011;49473;50.772;8.768;2023-03-01T13:06:15;8.07;;;7.47;;
2386;SDS011;49473;50.772;8.768;2023-03-01T13:08:49;8.00;;;7.30;;
2386;SDS011;49473;50.772;8.768;2023-03-01T13:11:25;8.30;;;7.50;;
2386;SDS011;49473;50.772;8.768;2023-03-01T13:13:52;7.80;;;7.17;;
2386;SDS011;49473;50.772;8.768;2023-03-01T13:16:57;8.17;;;7.47;;
2386;SDS011;49473;50.772;8.768;2023-03-01T13:19:26;8.33;;;6.97;;
2386;SDS011;49473;50.772;8.768;2023-03-01T13:21:55;8.10;;;7.40;;
2386;SDS011;49473;50.772;8.768;2023-03-01T13:24:23;9.30;;;8.40;;
2386;SDS011;49473;50.772;8.768;2023-03-01T13:27:08;8.23;;;7.43;;
2386;SDS011;49473;50.772;8.768;2023-03-01T13:29:43;9.53;;;8.73;;
2386;SDS011;49473;50.772;8.768;2023-03-01T13:32:21;9.97;;;8.97;;
2386;SDS011;49473;50.772;8.768;2023-03-01T13:34:55;8.07;;;7.27;;
2386;SDS011;49473;50.772;8.768;2023-03-01T13:37:26;8.10;;;7.30;;
2386;SDS011;49473;50.772;8.768;2023-03-01T13:39:58;8.37;;;7.60;;
2386;SDS011;49473;50.772;8.768;2023-03-01T13:42:32;8.30;;;7.40;;
2386;SDS011;49473;50.772;8.768;2023-03-01T13:45:02;8.47;;;7.53;;
2386;SDS011;49473;50.772;8.768;2023-03-01T13:47:32;8.60;;;7.80;;
2386;SDS011;49473;50.772;8.768;2023-03-01T13:50:06;8.93;;;7.27;;
2386;SDS011;49473;50.772;8.768;2023-03-01T13:52:43;8.10;;;7.30;;
2386;SDS011;49473;50.772;8.768;2023-03-01T13:55:15;8.93;;;7.30;;
2386;SDS011;49473;50.772;8.768;2023-03-01T13:57:45;10.07;;;8.27;;
2386;SDS011;49473;50.772;8.768;2023-03-01T14:00:29;8.40;;;7.30;;
2386;SDS011;49473;50.772;8.768;2023-03-01T14:03:08;8.07;;;6.90;;
2386;SDS011;49473;50.772;8.768;2023-03-01T14:05:38;10.60;;;7.60;;
2386;SDS011;49473;50.772;8.768;2023-03-01T14:08:14;9.40;;;7.07;;
2386;SDS011;49473;50.772;8.768;2023-03-01T14:10:46;9.27;;;7.63;;
2386;SDS011;49473;50.772;8.768;2023-03-01T14:13:23;8.00;;;7.17;;
2386;SDS011;49473;50.772;8.768;2023-03-01T14:16:07;8.57;;;7.63;;
2386;SDS011;49473;50.772;8.768;2023-03-01T14:18:45;9.00;;;6.70;;
2386;SDS011;49473;50.772;8.768;2023-03-01T14:21:18;10.00;;;7.27;;
2386;SDS011;49473;50.772;8.768;2023-03-01T14:23:45;7.40;;;6.60;;
2386;SDS011;49473;50.772;8.768;2023-03-01T14:26:12;8.10;;;7.40;;
2386;SDS011;49473;50.772;8.768;2023-03-01T14:28:39;9.40;;;7.67;;
2386;SDS011;49473;50.772;8.768;2023-03-01T14:33:55;7.23;;;6.53;;
2386;SDS011;49473;50.772;8.768;2023-03-01T14:36:26;8.57;;;7.50;;
2386;SDS011;49473;50.772;8.768;2023-03-01T14:38:53;10.30;;;7.47;;
2386;SDS011;49473;50.772;8.768;2023-03-01T14:41:23;7.80;;;6.90;;
2386;SDS011;49473;50.772;8.768;2023-03-01T14:43:52;9.60;;;7.57;;
2386;SDS011;49473;50.772;8.768;2023-03-01T14:46:23;7.63;;;6.53;;
2386;SDS011;49473;50.772;8.768;2023-03-01T14:48:51;8.67;;;7.13;;
2386;SDS011;49473;50.772;8.768;2023-03-01T14:51:21;12.23;;;7.50;;
2386;SDS011;49473;50.772;8.768;2023-03-01T14:53:50;7.87;;;7.07;;
2386;SDS011;49473;50.772;8.768;2023-03-01T14:56:17;8.10;;;7.30;;
2386;SDS011;49473;50.772;8.768;2023-03-01T14:58:44;8.40;;;7.50;;
2386;SDS011;49473;50.772;8.768;2023-03-01T15:01:13;8.93;;;7.13;;
2386;SDS011;49473;50.772;8.768;2023-03-01T15:03:42;7.50;;;6.80;;
2386;SDS011;49473;50.772;8.768;2023-03-01T15:06:11;8.30;;;6.67;;
2386;SDS011;49473;50.772;8.768;2023-03-01T15:08:42;7.13;;;6.53;;
2386;SDS011;49473;50.772;8.768;2023-03-01T15:11:18;8.87;;;7.27;;
2386;SDS011;49473;50.772;8.768;2023-03-01T15:13:49;9.50;;;6.50;;
2386;SDS011;49473;50.772;8.768;2023-03-01T15:16:17;10.10;;;6.97;;